Time;durP1;ratioP1;P1;durP2;ratioP2;P2;SDS_P1;SDS_P2;PMS_P1;PMS_P2;Temp;Humidity;BMP_temperature;BMP_pressure;BME280_temperature;BME280_humidity;BME280_pressure;Samples;Min_cycle;Max_cycle;Signal;HPM_P1;HPM_P2
2024/03/25 00:00:56;;;;;;;38.60;36.67;;;;;;;;;;4000000;29;20102;-57
2024/03/25 00:03:15;;;;;;;34.53;32.75;;;;;;;;;;4011897;29;20163;-57
2024/03/25 00:05:34;;;;;;;35.75;33.90;;;;;;;;;;4013790;29;22418;-58
2024/03/25 00:07:54;;;;;;;33.75;31.48;;;;;;;;;;4011836;29;20086;-59
2024/03/25 00:10:13;;;;;;;35.33;33.80;;;;;;;;;;4015192;29;20066;-58
2024/03/25 00:12:32;;;;;;;33.53;32.03;;;;;;;;;;4016645;29;22245;-59
2024/03/25 00:14:51;;;;;;;34.00;32.35;;;;;;;;;;4010842;29;20787;-59
2024/03/25 00:17:11;;;;;;;35.25;33.85;;;;;;;;;;4017402;29;20062;-57
2024/03/25 00:19:31;;;;;;;39.13;37.33;;;;;;;;;;4015488;29;20135;-58
2024/03/25 00:21:50;;;;;;;34.20;32.72;;;;;;;;;;4015424;29;20114;-58
2024/03/25 00:24:09;;;;;;;35.28;33.50;;;;;;;;;;4015167;29;20614;-59
2024/03/25 00:26:28;;;;;;;36.25;34.63;;;;;;;;;;4013945;29;20062;-58
2024/03/25 00:28:48;;;;;;;36.70;35.22;;;;;;;;;;4016702;29;20834;-59
2024/03/25 00:31:07;;;;;;;33.72;32.30;;;;;;;;;;4014593;29;20270;-58
2024/03/25 00:33:27;;;;;;;34.40;33.20;;;;;;;;;;4024877;29;20058;-57
2024/03/25 00:35:46;;;;;;;35.83;34.42;;;;;;;;;;4014843;29;20919;-59
2024/03/25 00:38:07;;;;;;;35.42;33.70;;;;;;;;;;4015867;29;20065;-59
2024/03/25 00:40:26;;;;;;;34.83;33.35;;;;;;;;;;4015163;29;20638;-57
2024/03/25 00:42:46;;;;;;;32.03;30.90;;;;;;;;;;4014727;29;21942;-58
2024/03/25 00:45:05;;;;;;;35.63;33.78;;;;;;;;;;4017056;29;20063;-58
2024/03/25 00:47:26;;;;;;;33.85;32.33;;;;;;;;;;4022828;29;20070;-57
2024/03/25 00:49:45;;;;;;;33.83;32.13;;;;;;;;;;4025179;29;20131;-58
2024/03/25 00:52:04;;;;;;;37.25;35.70;;;;;;;;;;4016439;29;20110;-58
2024/03/25 00:54:23;;;;;;;35.17;33.45;;;;;;;;;;4014626;29;20082;-58
2024/03/25 00:56:44;;;;;;;38.33;36.80;;;;;;;;;;4015653;29;20071;-58
2024/03/25 00:59:03;;;;;;;34.17;32.95;;;;;;;;;;4015352;29;20098;-56
2024/03/25 01:01:22;;;;;;;36.42;35.15;;;;;;;;;;4015743;29;21118;-58
2024/03/25 01:03:42;;;;;;;34.67;33.28;;;;;;;;;;4014650;29;20078;-57
2024/03/25 01:06:01;;;;;;;37.58;36.03;;;;;;;;;;4010052;29;20674;-57
2024/03/25 01:08:20;;;;;;;35.63;34.00;;;;;;;;;;4015826;29;20062;-58
2024/03/25 01:10:39;;;;;;;34.85;33.30;;;;;;;;;;4014614;29;20059;-57
2024/03/25 01:12:59;;;;;;;35.17;33.63;;;;;;;;;;4015009;29;20070;-59
2024/03/25 01:15:18;;;;;;;37.30;35.63;;;;;;;;;;4014422;29;20066;-57
2024/03/25 01:17:37;;;;;;;35.28;33.92;;;;;;;;;;4002042;29;20075;-58
2024/03/25 01:19:56;;;;;;;35.72;34.40;;;;;;;;;;3996811;29;20151;-58
2024/03/25 01:22:15;;;;;;;35.83;34.42;;;;;;;;;;4014552;29;20058;-57
2024/03/25 01:24:34;;;;;;;34.97;33.60;;;;;;;;;;4014935;29;20834;-56
2024/03/25 01:26:53;;;;;;;33.80;32.20;;;;;;;;;;4014555;29;20204;-58
2024/03/25 01:29:13;;;;;;;39.90;38.13;;;;;;;;;;4015083;29;20236;-58
2024/03/25 01:31:32;;;;;;;37.90;36.20;;;;;;;;;;4014159;29;20131;-59
2024/03/25 01:33:51;;;;;;;37.25;35.55;;;;;;;;;;4009646;29;20055;-58
2024/03/25 01:36:14;;;;;;;34.80;33.53;;;;;;;;;;4023457;29;20066;-56
2024/03/25 01:38:34;;;;;;;36.38;34.97;;;;;;;;;;4015252;29;20511;-58
2024/03/25 01:40:53;;;;;;;38.40;36.75;;;;;;;;;;4015038;29;20515;-58
2024/03/25 01:43:12;;;;;;;35.92;34.83;;;;;;;;;;4014603;29;20130;-58
2024/03/25 01:45:33;;;;;;;35.50;34.20;;;;;;;;;;4015053;29;20119;-58
2024/03/25 01:47:52;;;;;;;35.28;33.88;;;;;;;;;;4013685;29;20079;-57
2024/03/25 01:50:11;;;;;;;39.28;37.83;;;;;;;;;;4008477;29;20086;-58
2024/03/25 01:52:30;;;;;;;36.47;34.88;;;;;;;;;;4010786;29;20135;-56
2024/03/25 01:54:49;;;;;;;38.75;37.38;;;;;;;;;;4013386;29;20054;-58
2024/03/25 01:57:09;;;;;;;35.60;34.13;;;;;;;;;;4014742;29;20070;-58
2024/03/25 01:59:29;;;;;;;40.28;38.67;;;;;;;;;;4013475;29;20095;-59
2024/03/25 02:01:48;;;;;;;39.70;37.60;;;;;;;;;;4015814;29;20176;-57
2024/03/25 02:04:07;;;;;;;40.92;39.00;;;;;;;;;;4025648;29;20067;-57
2024/03/25 02:06:27;;;;;;;39.67;38.03;;;;;;;;;;4016871;29;20079;-57
2024/03/25 02:08:47;;;;;;;40.45;38.75;;;;;;;;;;4016669;29;20170;-57
2024/03/25 02:11:08;;;;;;;38.22;36.47;;;;;;;;;;4011690;29;20095;-57
2024/03/25 02:13:27;;;;;;;70.68;60.00;;;;;;;;;;4018019;29;20063;-57
2024/03/25 02:15:49;;;;;;;39.83;37.85;;;;;;;;;;4017191;29;20784;-57
2024/03/25 02:18:09;;;;;;;44.70;42.03;;;;;;;;;;4015668;29;20436;-57
2024/03/25 02:20:29;;;;;;;38.25;36.08;;;;;;;;;;4010763;29;20132;-57
2024/03/25 02:22:48;;;;;;;35.58;34.15;;;;;;;;;;4018113;29;20271;-57
2024/03/25 02:25:09;;;;;;;38.78;37.35;;;;;;;;;;4016011;29;22215;-58
2024/03/25 02:27:28;;;;;;;37.30;35.88;;;;;;;;;;4016523;29;20063;-57
2024/03/25 02:29:47;;;;;;;38.70;37.20;;;;;;;;;;4016948;29;20058;-57
2024/03/25 02:32:10;;;;;;;35.92;34.05;;;;;;;;;;4013715;29;20566;-57
2024/03/25 02:34:29;;;;;;;35.17;33.83;;;;;;;;;;4013359;29;20153;-56
2024/03/25 02:36:48;;;;;;;37.78;36.22;;;;;;;;;;4023721;29;20145;-57
2024/03/25 02:39:09;;;;;;;36.17;34.85;;;;;;;;;;4012438;29;22702;-56
2024/03/25 02:41:30;;;;;;;36.50;35.20;;;;;;;;;;4013456;29;20106;-57
2024/03/25 02:43:50;;;;;;;37.38;36.08;;;;;;;;;;4013373;29;20107;-57
2024/03/25 02:46:09;;;;;;;37.65;36.28;;;;;;;;;;4013280;29;20410;-56
2024/03/25 02:48:28;;;;;;;35.50;34.15;;;;;;;;;;4013242;29;20923;-57
2024/03/25 02:50:47;;;;;;;34.63;33.47;;;;;;;;;;3986607;29;20059;-57
2024/03/25 02:53:06;;;;;;;38.08;36.88;;;;;;;;;;4021154;29;22459;-57
2024/03/25 02:55:25;;;;;;;36.40;35.20;;;;;;;;;;4013348;29;20082;-56
2024/03/25 02:57:45;;;;;;;35.95;34.60;;;;;;;;;;4015324;29;20062;-57
2024/03/25 03:00:05;;;;;;;42.92;40.05;;;;;;;;;;4013044;29;20066;-57
2024/03/25 03:02:24;;;;;;;39.42;37.28;;;;;;;;;;4012821;29;21297;-56
2024/03/25 03:04:43;;;;;;;36.92;35.35;;;;;;;;;;4013564;29;20086;-56
2024/03/25 03:07:02;;;;;;;40.08;38.38;;;;;;;;;;3999140;29;20056;-57
2024/03/25 03:09:22;;;;;;;37.97;36.42;;;;;;;;;;4013835;29;20162;-56
2024/03/25 03:11:41;;;;;;;35.85;34.35;;;;;;;;;;4013284;29;20067;-57
2024/03/25 03:14:01;;;;;;;40.65;39.08;;;;;;;;;;4013831;29;20249;-57
2024/03/25 03:16:20;;;;;;;39.85;38.55;;;;;;;;;;4013806;29;20177;-57
2024/03/25 03:18:39;;;;;;;40.05;38.30;;;;;;;;;;4014236;29;20994;-56
2024/03/25 03:20:58;;;;;;;38.40;36.78;;;;;;;;;;4011781;29;20443;-58
2024/03/25 03:23:18;;;;;;;34.13;32.97;;;;;;;;;;4012968;29;20090;-57
2024/03/25 03:25:38;;;;;;;35.70;34.33;;;;;;;;;;4013969;29;20077;-57
2024/03/25 03:27:57;;;;;;;35.00;33.90;;;;;;;;;;4011914;29;20159;-56
2024/03/25 03:30:16;;;;;;;39.05;37.70;;;;;;;;;;4013264;29;20058;-57
2024/03/25 03:32:35;;;;;;;38.33;36.70;;;;;;;;;;4013204;29;20585;-55
2024/03/25 03:34:54;;;;;;;39.33;37.83;;;;;;;;;;4012206;29;20282;-57
2024/03/25 03:37:13;;;;;;;36.97;35.55;;;;;;;;;;4013483;29;20069;-57
2024/03/25 03:39:32;;;;;;;38.35;36.78;;;;;;;;;;4012309;29;20071;-57
2024/03/25 03:41:51;;;;;;;40.33;38.90;;;;;;;;;;4012699;29;20118;-56
2024/03/25 03:44:12;;;;;;;39.15;37.67;;;;;;;;;;4012450;29;20135;-57
2024/03/25 03:46:31;;;;;;;35.40;34.30;;;;;;;;;;4015702;29;21329;-57
2024/03/25 03:48:50;;;;;;;36.65;35.35;;;;;;;;;;4015898;29;20186;-57
2024/03/25 03:51:09;;;;;;;35.90;34.40;;;;;;;;;;4014513;29;20066;-57
2024/03/25 03:53:28;;;;;;;37.53;36.10;;;;;;;;;;4016816;29;20062;-57
2024/03/25 03:55:57;;;;;;;34.92;33.25;;;;;;;;;;4016252;29;20094;-57
2024/03/25 03:58:16;;;;;;;37.88;36.47;;;;;;;;;;4014349;29;20071;-57
2024/03/25 04:00:35;;;;;;;37.67;36.28;;;;;;;;;;4015840;29;20990;-57
2024/03/25 04:02:55;;;;;;;37.70;36.30;;;;;;;;;;4002307;29;20558;-57
2024/03/25 04:05:14;;;;;;;37.28;35.85;;;;;;;;;;4015561;29;20815;-57
2024/03/25 04:07:33;;;;;;;37.55;35.88;;;;;;;;;;4015374;29;20058;-57
2024/03/25 04:09:53;;;;;;;36.60;35.38;;;;;;;;;;4013516;29;20058;-56
2024/03/25 04:12:13;;;;;;;36.92;35.63;;;;;;;;;;4015075;29;20058;-57
2024/03/25 04:14:33;;;;;;;36.08;34.58;;;;;;;;;;4016335;29;20094;-57
2024/03/25 04:16:54;;;;;;;34.42;32.80;;;;;;;;;;4014608;29;20058;-57
2024/03/25 04:19:13;;;;;;;38.25;36.60;;;;;;;;;;4014982;29;20068;-57
2024/03/25 04:21:32;;;;;;;41.30;39.80;;;;;;;;;;4016020;29;20119;-57
2024/03/25 04:23:51;;;;;;;37.85;36.63;;;;;;;;;;4015569;29;20071;-57
2024/03/25 04:26:10;;;;;;;35.75;34.45;;;;;;;;;;4012933;29;20062;-58
2024/03/25 04:28:29;;;;;;;37.65;36.47;;;;;;;;;;4013833;29;20186;-57
2024/03/25 04:30:52;;;;;;;38.15;36.90;;;;;;;;;;4014719;29;20087;-57
2024/03/25 04:33:12;;;;;;;38.72;37.33;;;;;;;;;;4016130;29;20397;-57
2024/03/25 04:35:31;;;;;;;37.05;35.85;;;;;;;;;;4007921;29;20507;-57
2024/03/25 04:37:50;;;;;;;39.38;38.15;;;;;;;;;;4016156;29;20074;-57
2024/03/25 04:40:09;;;;;;;36.13;34.78;;;;;;;;;;4015022;29;20707;-56
2024/03/25 04:42:28;;;;;;;36.22;34.40;;;;;;;;;;4015493;29;20545;-58
2024/03/25 04:44:48;;;;;;;37.90;36.65;;;;;;;;;;4015850;29;20147;-57
2024/03/25 04:47:07;;;;;;;39.58;38.08;;;;;;;;;;4015308;29;20959;-57
2024/03/25 04:49:26;;;;;;;36.13;34.78;;;;;;;;;;4015433;29;20070;-57
2024/03/25 04:51:46;;;;;;;38.28;36.72;;;;;;;;;;4015016;29;20203;-57
2024/03/25 04:54:06;;;;;;;36.65;35.35;;;;;;;;;;4015648;29;20883;-57
2024/03/25 04:56:25;;;;;;;36.00;34.83;;;;;;;;;;4009623;29;22749;-56
2024/03/25 04:58:44;;;;;;;38.28;36.95;;;;;;;;;;4015012;29;20094;-56
2024/03/25 05:01:03;;;;;;;36.88;35.88;;;;;;;;;;4015254;29;20083;-57
2024/03/25 05:03:22;;;;;;;39.63;38.42;;;;;;;;;;4015031;29;21243;-58
2024/03/25 05:05:41;;;;;;;37.38;36.13;;;;;;;;;;4016134;29;20097;-57
2024/03/25 05:08:03;;;;;;;37.63;36.35;;;;;;;;;;4022667;29;20058;-57
2024/03/25 05:10:23;;;;;;;;;;;;;;;;;;4011753;29;20060;-56
2024/03/25 05:12:44;;;;;;;39.97;38.70;;;;;;;;;;4016404;29;20002;-56
2024/03/25 05:15:03;;;;;;;35.88;34.03;;;;;;;;;;4014830;29;20107;-58
2024/03/25 05:17:22;;;;;;;40.15;38.65;;;;;;;;;;4014746;29;20784;-57
2024/03/25 05:19:41;;;;;;;37.88;36.60;;;;;;;;;;4000335;29;20115;-56
2024/03/25 05:22:00;;;;;;;36.05;34.78;;;;;;;;;;4023450;29;20231;-57
2024/03/25 05:24:20;;;;;;;35.50;34.30;;;;;;;;;;4013733;29;20067;-57
2024/03/25 05:26:40;;;;;;;43.45;41.50;;;;;;;;;;4014549;29;20063;-58
2024/03/25 05:28:58;;;;;;;38.05;36.78;;;;;;;;;;4014421;29;20127;-57
2024/03/25 05:31:17;;;;;;;37.22;35.95;;;;;;;;;;4001082;29;20147;-57
2024/03/25 05:33:37;;;;;;;41.58;40.33;;;;;;;;;;4016491;29;20067;-57
2024/03/25 05:35:56;;;;;;;38.53;37.03;;;;;;;;;;4015249;29;20650;-57
2024/03/25 05:38:15;;;;;;;42.60;41.00;;;;;;;;;;4016506;29;20590;-57
2024/03/25 05:40:35;;;;;;;41.25;39.55;;;;;;;;;;4023823;29;20071;-56
2024/03/25 05:42:55;;;;;;;38.47;36.63;;;;;;;;;;4015796;29;20166;-57
2024/03/25 05:45:14;;;;;;;41.17;39.33;;;;;;;;;;4015867;29;20589;-57
2024/03/25 05:47:34;;;;;;;41.55;39.47;;;;;;;;;;4015296;29;20062;-56
2024/03/25 05:49:53;;;;;;;45.78;43.22;;;;;;;;;;4015951;29;20070;-57
2024/03/25 05:52:12;;;;;;;40.45;38.35;;;;;;;;;;4014611;29;20074;-57
2024/03/25 05:54:31;;;;;;;36.67;34.95;;;;;;;;;;4004071;29;20058;-57
2024/03/25 05:56:50;;;;;;;37.42;35.83;;;;;;;;;;4015129;29;20922;-56
2024/03/25 05:59:09;;;;;;;32.80;31.77;;;;;;;;;;4015402;29;20811;-56
2024/03/25 06:01:28;;;;;;;35.42;34.17;;;;;;;;;;4010574;29;20145;-56
2024/03/25 06:03:47;;;;;;;35.05;33.75;;;;;;;;;;4014923;29;20062;-57
2024/03/25 06:06:07;;;;;;;36.58;35.38;;;;;;;;;;4016324;29;20111;-57
2024/03/25 06:08:26;;;;;;;39.90;38.40;;;;;;;;;;4014479;29;20117;-57
2024/03/25 06:10:46;;;;;;;37.35;35.75;;;;;;;;;;4014535;29;20073;-57
2024/03/25 06:13:05;;;;;;;41.05;39.15;;;;;;;;;;4022987;29;20151;-57
2024/03/25 06:15:25;;;;;;;40.13;38.60;;;;;;;;;;4025058;29;20062;-57
2024/03/25 06:17:44;;;;;;;39.90;38.38;;;;;;;;;;4001664;29;21991;-57
2024/03/25 06:20:04;;;;;;;41.58;39.63;;;;;;;;;;4008598;29;20058;-62
2024/03/25 06:22:23;;;;;;;40.60;39.10;;;;;;;;;;4014604;29;20167;-62
2024/03/25 06:24:42;;;;;;;41.85;40.03;;;;;;;;;;4014351;29;20063;-62
2024/03/25 06:27:02;;;;;;;42.53;40.72;;;;;;;;;;4015604;29;20098;-62
2024/03/25 06:29:22;;;;;;;42.20;40.75;;;;;;;;;;4014461;29;21484;-62
2024/03/25 06:34:21;;;;;;;42.83;40.53;;;;;;;;;;4014968;29;20135;-62
2024/03/25 06:36:41;;;;;;;40.50;38.65;;;;;;;;;;4012913;29;20551;-62
2024/03/25 06:39:00;;;;;;;41.45;39.75;;;;;;;;;;4013489;29;20768;-62
2024/03/25 06:41:20;;;;;;;39.28;37.78;;;;;;;;;;4012686;29;20059;-63
2024/03/25 06:43:40;;;;;;;38.42;37.13;;;;;;;;;;4021268;29;20099;-63
2024/03/25 06:46:00;;;;;;;36.78;35.60;;;;;;;;;;4013273;29;20062;-63
2024/03/25 06:48:19;;;;;;;36.90;35.78;;;;;;;;;;4013928;29;20155;-63
2024/03/25 06:50:38;;;;;;;34.92;33.33;;;;;;;;;;4013798;29;20074;-62
2024/03/25 06:52:57;;;;;;;32.15;31.27;;;;;;;;;;4013172;29;20707;-62
2024/03/25 06:55:17;;;;;;;34.88;33.65;;;;;;;;;;4012829;29;20062;-63
2024/03/25 06:57:36;;;;;;;37.22;36.17;;;;;;;;;;4014025;29;20143;-63
2024/03/25 06:59:57;;;;;;;32.17;31.10;;;;;;;;;;4014456;29;21157;-63
2024/03/25 07:02:16;;;;;;;34.50;33.60;;;;;;;;;;4013641;29;20075;-63
2024/03/25 07:04:36;;;;;;;34.72;33.58;;;;;;;;;;4000697;29;20475;-62
2024/03/25 07:06:55;;;;;;;29.70;28.65;;;;;;;;;;4014066;29;20082;-62
2024/03/25 07:09:14;;;;;;;32.60;31.75;;;;;;;;;;4012126;29;20062;-63
2024/03/25 07:11:33;;;;;;;31.40;30.60;;;;;;;;;;4011139;29;20150;-63
2024/03/25 07:13:52;;;;;;;33.58;32.65;;;;;;;;;;4009077;29;20574;-63
2024/03/25 07:16:11;;;;;;;55.50;50.78;;;;;;;;;;4014089;29;22374;-63
2024/03/25 07:18:30;;;;;;;68.82;61.20;;;;;;;;;;4007925;29;20487;-63
2024/03/25 07:20:49;;;;;;;53.35;48.30;;;;;;;;;;4013133;29;20110;-63
2024/03/25 07:23:09;;;;;;;37.17;35.83;;;;;;;;;;4014225;29;20095;-63
2024/03/25 07:25:28;;;;;;;34.38;32.75;;;;;;;;;;4014524;29;20092;-63
2024/03/25 07:27:47;;;;;;;32.65;31.60;;;;;;;;;;4012275;29;20793;-63
2024/03/25 07:30:06;;;;;;;32.10;31.05;;;;;;;;;;4014548;29;20063;-63
2024/03/25 07:32:26;;;;;;;31.90;30.45;;;;;;;;;;4012667;29;23059;-63
2024/03/25 07:34:46;;;;;;;31.35;30.10;;;;;;;;;;4013865;29;21007;-63
2024/03/25 07:37:05;;;;;;;29.15;28.35;;;;;;;;;;4013700;29;20069;-63
2024/03/25 07:39:24;;;;;;;29.17;28.10;;;;;;;;;;4013634;29;20197;-64
2024/03/25 07:41:43;;;;;;;29.95;29.33;;;;;;;;;;4013740;29;20054;-63
2024/03/25 07:44:02;;;;;;;28.92;28.23;;;;;;;;;;4013236;29;20482;-63
2024/03/25 07:46:21;;;;;;;27.75;26.75;;;;;;;;;;4012997;29;20126;-64
2024/03/25 07:48:42;;;;;;;28.23;27.33;;;;;;;;;;4017071;29;21618;-63
2024/03/25 07:51:02;;;;;;;25.38;24.45;;;;;;;;;;4014297;29;20916;-63
2024/03/25 07:53:21;;;;;;;24.27;23.67;;;;;;;;;;4014012;29;20062;-63
2024/03/25 07:55:40;;;;;;;22.70;22.40;;;;;;;;;;4013660;29;22780;-63
2024/03/25 07:57:59;;;;;;;23.80;23.30;;;;;;;;;;4014752;29;20096;-63
2024/03/25 08:00:18;;;;;;;21.63;21.23;;;;;;;;;;4013365;29;20058;-63
2024/03/25 08:02:37;;;;;;;22.65;21.67;;;;;;;;;;4013996;29;20154;-62
2024/03/25 08:04:56;;;;;;;21.83;20.92;;;;;;;;;;4014060;29;20117;-63
2024/03/25 08:07:15;;;;;;;21.60;21.02;;;;;;;;;;4022594;29;20699;-63
2024/03/25 08:09:34;;;;;;;20.67;20.20;;;;;;;;;;4014069;29;20175;-63
2024/03/25 08:11:53;;;;;;;27.95;26.17;;;;;;;;;;4013359;29;20066;-63
2024/03/25 08:14:12;;;;;;;25.00;23.95;;;;;;;;;;4013991;29;20063;-63
2024/03/25 08:16:31;;;;;;;26.38;25.48;;;;;;;;;;4013951;29;20132;-63
2024/03/25 08:18:50;;;;;;;24.58;23.98;;;;;;;;;;4020478;29;20179;-64
2024/03/25 08:21:09;;;;;;;24.90;24.20;;;;;;;;;;4013614;29;20070;-63
2024/03/25 08:23:29;;;;;;;28.17;27.38;;;;;;;;;;4011642;29;20233;-63
2024/03/25 08:25:49;;;;;;;29.05;27.88;;;;;;;;;;4012807;29;20206;-63
2024/03/25 08:28:08;;;;;;;27.27;26.33;;;;;;;;;;4014131;29;20127;-63
2024/03/25 08:30:27;;;;;;;26.15;25.45;;;;;;;;;;4013713;29;20144;-63
2024/03/25 08:32:46;;;;;;;22.92;22.35;;;;;;;;;;4016473;29;20594;-63
2024/03/25 08:35:05;;;;;;;26.63;25.90;;;;;;;;;;4024557;29;20695;-63
2024/03/25 08:37:24;;;;;;;24.35;23.45;;;;;;;;;;4017089;29;20147;-62
2024/03/25 08:39:43;;;;;;;22.35;21.45;;;;;;;;;;4016362;29;20728;-64
2024/03/25 08:42:02;;;;;;;20.70;20.00;;;;;;;;;;4015726;29;20589;-63
2024/03/25 08:44:22;;;;;;;23.50;22.83;;;;;;;;;;4016361;29;20182;-63
2024/03/25 08:46:41;;;;;;;30.50;28.85;;;;;;;;;;4015580;29;20635;-63
2024/03/25 08:49:00;;;;;;;24.65;23.88;;;;;;;;;;4016120;29;20135;-63
2024/03/25 08:51:19;;;;;;;21.73;21.17;;;;;;;;;;4016457;29;20184;-63
2024/03/25 08:53:38;;;;;;;18.63;18.38;;;;;;;;;;4015226;29;20095;-64
2024/03/25 08:55:57;;;;;;;19.75;19.35;;;;;;;;;;4015995;29;20224;-63
2024/03/25 08:58:16;;;;;;;15.25;14.93;;;;;;;;;;4015081;29;20667;-64
2024/03/25 09:00:35;;;;;;;12.60;12.32;;;;;;;;;;4018337;29;20079;-64
2024/03/25 09:02:54;;;;;;;13.40;13.27;;;;;;;;;;4016288;29;20140;-63
2024/03/25 09:05:18;;;;;;;15.20;14.77;;;;;;;;;;4015994;29;20557;-64
2024/03/25 09:07:38;;;;;;;12.75;12.65;;;;;;;;;;4014997;29;20574;-64
2024/03/25 09:12:35;;;;;;;17.33;16.38;;;;;;;;;;4014462;29;20115;-63
2024/03/25 09:14:55;;;;;;;12.07;11.85;;;;;;;;;;4015482;29;20111;-64
2024/03/25 09:17:14;;;;;;;10.50;10.40;;;;;;;;;;4015570;29;20127;-63
2024/03/25 09:19:33;;;;;;;9.68;9.43;;;;;;;;;;4014509;29;20727;-64
2024/03/25 09:21:52;;;;;;;11.90;11.48;;;;;;;;;;4015781;29;20144;-63
2024/03/25 09:24:11;;;;;;;8.40;7.95;;;;;;;;;;4015581;29;20066;-64
2024/03/25 09:26:30;;;;;;;7.43;7.32;;;;;;;;;;4015097;29;20463;-63
2024/03/25 09:28:49;;;;;;;7.10;6.90;;;;;;;;;;4015726;29;20617;-63
2024/03/25 09:31:08;;;;;;;6.82;6.63;;;;;;;;;;4015382;29;20074;-64
2024/03/25 09:33:27;;;;;;;7.30;7.00;;;;;;;;;;4015746;29;20155;-63
2024/03/25 09:35:27;;;;;;;5.05;4.95;;;;;;;;;;4081928;29;20075;-63
2024/03/25 09:37:29;;;;;;;4.78;4.45;;;;;;;;;;4082625;29;20059;-63
2024/03/25 09:39:30;;;;;;;4.40;4.40;;;;;;;;;;4082122;29;20067;-63
2024/03/25 09:41:34;;;;;;;4.50;4.40;;;;;;;;;;4085903;29;20471;-63
2024/03/25 09:43:47;;;;;;;4.30;4.15;;;;;;;;;;4081787;29;20047;-63
2024/03/25 09:45:48;;;;;;;3.92;3.83;;;;;;;;;;4081975;29;20051;-63
2024/03/25 09:47:50;;;;;;;5.22;5.13;;;;;;;;;;4006819;29;20083;-64
2024/03/25 09:49:53;;;;;;;5.88;5.57;;;;;;;;;;4013343;29;20468;-64
2024/03/25 09:51:54;;;;;;;3.92;3.72;;;;;;;;;;4013266;29;20221;-64
2024/03/25 09:53:55;;;;;;;4.28;4.28;;;;;;;;;;4007395;29;20927;-64
2024/03/25 09:55:56;;;;;;;5.15;5.15;;;;;;;;;;4013960;29;20074;-63
2024/03/25 09:57:58;;;;;;;5.15;5.05;;;;;;;;;;4011927;29;20082;-64
2024/03/25 09:59:59;;;;;;;5.30;5.03;;;;;;;;;;4013450;29;20195;-64
2024/03/25 10:02:00;;;;;;;5.70;5.45;;;;;;;;;;4024204;28;20051;-64
2024/03/25 10:04:02;;;;;;;4.95;4.85;;;;;;;;;;4013061;29;20098;-64
2024/03/25 10:06:03;;;;;;;4.85;4.75;;;;;;;;;;4012389;29;20134;-64
2024/03/25 10:08:04;;;;;;;4.72;4.63;;;;;;;;;;4012118;29;20048;-64
2024/03/25 10:10:05;;;;;;;4.90;4.72;;;;;;;;;;4004943;29;20524;-64
2024/03/25 10:12:05;;;;;;;5.65;5.65;;;;;;;;;;4235603;23;20064;-60
2024/03/25 10:14:06;;;;;;;4.67;4.57;;;;;;;;;;3962811;29;209549;-61
